Time;durP1;ratioP1;P1;durP2;ratioP2;P2;SDS_P1;SDS_P2;PMS_P1;PMS_P2;Temp;Humidity;BMP_temperature;BMP_pressure;BME280_temperature;BME280_humidity;BME280_pressure;Samples;Min_cycle;Max_cycle;Signal;HPM_P1;HPM_P2
2022/12/28 00:01:22;;;;;;;6.68;6.07;;;;;;;;;;5035240;28;20429;-86
2022/12/28 00:03:48;;;;;;;5.93;5.53;;;;;;;;;;5033516;28;20436;-86
2022/12/28 00:06:15;;;;;;;6.60;6.00;;;;;;;;;;5035484;28;20377;-86
2022/12/28 00:08:41;;;;;;;6.68;6.18;;;;;;;;;;5017304;28;20383;-88
2022/12/28 00:11:08;;;;;;;6.95;6.10;;;;;;;;;;5036423;28;20474;-88
2022/12/28 00:13:35;;;;;;;7.03;6.32;;;;;;;;;;5036752;28;20383;-86
2022/12/28 00:16:20;;;;;;;6.80;6.20;;;;;;;;;;5016821;28;20881;-87
2022/12/28 00:18:46;;;;;;;7.20;6.50;;;;;;;;;;5035947;28;20525;-87
2022/12/28 00:21:12;;;;;;;6.03;5.53;;;;;;;;;;5035898;28;20442;-88
2022/12/28 00:23:38;;;;;;;7.10;6.40;;;;;;;;;;5019721;28;20380;-87
2022/12/28 00:26:05;;;;;;;6.97;6.37;;;;;;;;;;5020204;28;20414;-87
2022/12/28 00:28:31;;;;;;;7.78;7.05;;;;;;;;;;5038975;28;20712;-87
2022/12/28 00:30:57;;;;;;;7.18;6.57;;;;;;;;;;5035228;28;20406;-88
2022/12/28 00:33:23;;;;;;;7.80;7.10;;;;;;;;;;5034456;28;20399;-87
2022/12/28 00:35:56;;;;;;;7.72;7.03;;;;;;;;;;5035717;28;20463;-86
2022/12/28 00:38:22;;;;;;;8.60;7.83;;;;;;;;;;5035488;28;20419;-87
2022/12/28 00:40:48;;;;;;;8.80;7.90;;;;;;;;;;5037542;28;20378;-87
2022/12/28 00:43:15;;;;;;;8.27;7.57;;;;;;;;;;5035371;28;20448;-87
2022/12/28 00:45:44;;;;;;;8.90;8.00;;;;;;;;;;5037160;28;20381;-88
2022/12/28 00:48:10;;;;;;;9.40;8.55;;;;;;;;;;5017444;28;20429;-88
2022/12/28 00:50:36;;;;;;;8.73;7.93;;;;;;;;;;5038949;28;20880;-87
2022/12/28 00:53:02;;;;;;;8.35;7.57;;;;;;;;;;5035732;28;20387;-87
2022/12/28 00:55:28;;;;;;;7.82;7.10;;;;;;;;;;5028076;28;20379;-86
2022/12/28 00:57:54;;;;;;;8.03;7.33;;;;;;;;;;5034923;28;20406;-87
2022/12/28 01:00:20;;;;;;;7.65;6.95;;;;;;;;;;5032644;28;20469;-89
2022/12/28 01:02:46;;;;;;;7.55;6.80;;;;;;;;;;5014800;28;20911;-87
2022/12/28 01:05:12;;;;;;;7.50;6.80;;;;;;;;;;5034787;28;20383;-88
2022/12/28 01:07:38;;;;;;;7.35;6.68;;;;;;;;;;5033330;28;20394;-88
2022/12/28 01:10:05;;;;;;;7.47;6.78;;;;;;;;;;5034209;28;20387;-88
2022/12/28 01:12:31;;;;;;;7.73;7.10;;;;;;;;;;5019060;28;20379;-89
2022/12/28 01:14:57;;;;;;;7.28;6.50;;;;;;;;;;5014603;28;20445;-88
2022/12/28 01:17:26;;;;;;;7.53;6.78;;;;;;;;;;5035115;28;20383;-89
2022/12/28 01:19:52;;;;;;;6.93;6.32;;;;;;;;;;5018331;28;20735;-88
2022/12/28 01:22:18;;;;;;;7.70;6.90;;;;;;;;;;5021067;28;20458;-88
2022/12/28 01:24:44;;;;;;;8.10;7.30;;;;;;;;;;5033752;28;22211;-88
2022/12/28 01:27:10;;;;;;;6.85;6.25;;;;;;;;;;5036299;28;20406;-87
2022/12/28 01:29:36;;;;;;;8.18;7.18;;;;;;;;;;5015918;28;20431;-86
2022/12/28 01:32:02;;;;;;;8.05;7.32;;;;;;;;;;5035204;28;20390;-87
2022/12/28 01:34:28;;;;;;;7.67;6.93;;;;;;;;;;5032223;28;20424;-88
2022/12/28 01:36:54;;;;;;;8.00;7.35;;;;;;;;;;5014892;28;20425;-85
2022/12/28 01:39:20;;;;;;;8.50;7.60;;;;;;;;;;5034106;28;20391;-87
2022/12/28 01:41:46;;;;;;;7.90;7.20;;;;;;;;;;5033415;28;20466;-88
2022/12/28 01:44:12;;;;;;;7.25;6.57;;;;;;;;;;5039694;28;20381;-87
2022/12/28 01:46:50;;;;;;;7.63;6.95;;;;;;;;;;5037110;28;20385;-88
2022/12/28 01:49:34;;;;;;;8.05;7.30;;;;;;;;;;5031319;28;20374;-87
2022/12/28 01:52:03;;;;;;;7.43;6.82;;;;;;;;;;5033365;28;20423;-87
2022/12/28 01:54:32;;;;;;;7.82;7.13;;;;;;;;;;5035352;28;20428;-87
2022/12/28 01:56:58;;;;;;;7.53;6.82;;;;;;;;;;5032540;28;20458;-88
2022/12/28 01:59:26;;;;;;;7.25;6.65;;;;;;;;;;5015789;28;20486;-87
2022/12/28 02:01:52;;;;;;;7.53;6.82;;;;;;;;;;5031448;28;20473;-87
2022/12/28 02:04:18;;;;;;;7.72;7.10;;;;;;;;;;5033338;28;20454;-86
2022/12/28 02:06:44;;;;;;;7.30;6.55;;;;;;;;;;5013298;28;20394;-87
2022/12/28 02:09:13;;;;;;;7.65;6.95;;;;;;;;;;5036132;28;20471;-86
2022/12/28 02:11:40;;;;;;;8.07;7.30;;;;;;;;;;5040271;28;20440;-87
2022/12/28 02:14:07;;;;;;;7.90;7.10;;;;;;;;;;5052064;28;20382;-87
2022/12/28 02:16:33;;;;;;;8.30;7.60;;;;;;;;;;5052014;28;20385;-86
2022/12/28 02:18:59;;;;;;;8.77;7.70;;;;;;;;;;5052113;28;22079;-86
2022/12/28 02:21:43;;;;;;;8.32;7.55;;;;;;;;;;5048592;28;20413;-86
2022/12/28 02:24:27;;;;;;;8.32;7.53;;;;;;;;;;5023530;28;21027;-89
2022/12/28 02:26:56;;;;;;;8.20;7.40;;;;;;;;;;5032037;28;20461;-86
2022/12/28 02:29:22;;;;;;;8.55;7.75;;;;;;;;;;5016932;28;21068;-88
2022/12/28 02:31:51;;;;;;;7.95;7.30;;;;;;;;;;5033725;28;20375;-88
2022/12/28 02:34:24;;;;;;;7.93;7.23;;;;;;;;;;5034278;28;20387;-86
2022/12/28 02:36:53;;;;;;;7.43;6.82;;;;;;;;;;5039546;28;20417;-86
2022/12/28 02:39:24;;;;;;;8.25;7.53;;;;;;;;;;5043746;28;20436;-86
2022/12/28 02:41:51;;;;;;;10.68;9.57;;;;;;;;;;5048624;28;20515;-87
2022/12/28 02:50:04;;;;;;;7.32;6.72;;;;;;;;;;5047726;28;20408;-87
2022/12/28 02:50:06;;;;;;;8.30;7.60;;;;;;;;;;5042900;28;20444;-86
2022/12/28 02:52:51;;;;;;;8.05;7.35;;;;;;;;;;5033972;28;20436;-86
2022/12/28 02:58:34;;;;;;;7.20;6.50;;;;;;;;;;5030632;28;20458;-86
2022/12/28 03:01:19;;;;;;;7.70;6.90;;;;;;;;;;5037525;28;20462;-87
2022/12/28 03:03:45;;;;;;;7.30;6.68;;;;;;;;;;5032861;28;20440;-87
2022/12/28 03:09:15;;;;;;;7.53;6.82;;;;;;;;;;5032605;28;20365;-88
2022/12/28 03:11:50;;;;;;;7.53;6.85;;;;;;;;;;5031017;28;20824;-85
2022/12/28 03:14:20;;;;;;;7.43;6.72;;;;;;;;;;5033196;28;20432;-87
2022/12/28 03:31:03;;;;;;;7.97;7.38;;;;;;;;;;4988738;28;20427;-88
2022/12/28 03:33:29;;;;;;;7.70;7.00;;;;;;;;;;4988534;28;20582;-88
2022/12/28 03:36:16;;;;;;;7.85;7.13;;;;;;;;;;4988711;28;20390;-87
2022/12/28 03:39:05;;;;;;;8.63;7.82;;;;;;;;;;4992855;28;20446;-89
2022/12/28 03:41:35;;;;;;;8.57;7.78;;;;;;;;;;5035650;28;20553;-86
2022/12/28 03:44:05;;;;;;;7.55;6.88;;;;;;;;;;5053953;28;20504;-86
2022/12/28 03:46:39;;;;;;;7.95;7.35;;;;;;;;;;5053841;28;20377;-89
2022/12/28 03:49:05;;;;;;;8.13;7.50;;;;;;;;;;5053735;28;20427;-87
2022/12/28 03:51:32;;;;;;;7.88;7.18;;;;;;;;;;5035733;28;20390;-87
2022/12/28 03:53:58;;;;;;;7.85;7.10;;;;;;;;;;5053659;28;20401;-90
2022/12/28 03:56:25;;;;;;;8.18;7.30;;;;;;;;;;5034080;28;20759;-87
2022/12/28 03:58:52;;;;;;;7.47;6.90;;;;;;;;;;5053316;28;20381;-88
2022/12/28 04:01:18;;;;;;;7.75;7.05;;;;;;;;;;5053251;28;20432;-87
2022/12/28 04:03:45;;;;;;;8.27;7.60;;;;;;;;;;5053665;28;20529;-88
2022/12/28 04:06:14;;;;;;;9.80;9.00;;;;;;;;;;5034724;28;21007;-86
2022/12/28 04:08:40;;;;;;;9.67;8.80;;;;;;;;;;5034109;28;20531;-85
2022/12/28 04:11:06;;;;;;;9.15;8.30;;;;;;;;;;5053352;28;20742;-86
2022/12/28 04:13:33;;;;;;;8.63;7.82;;;;;;;;;;5050792;28;20408;-86
2022/12/28 04:15:59;;;;;;;8.38;7.65;;;;;;;;;;5053647;28;20636;-86
2022/12/28 04:18:25;;;;;;;8.20;7.50;;;;;;;;;;5054341;28;20449;-87
2022/12/28 04:20:52;;;;;;;8.30;7.65;;;;;;;;;;5054216;28;20809;-85
2022/12/28 04:23:18;;;;;;;8.57;7.80;;;;;;;;;;5036732;28;20758;-86
2022/12/28 04:25:44;;;;;;;8.23;7.53;;;;;;;;;;5056848;28;20936;-85
2022/12/28 04:28:10;;;;;;;8.18;7.57;;;;;;;;;;5036101;28;20382;-85
2022/12/28 04:30:36;;;;;;;9.00;8.20;;;;;;;;;;5054037;28;20393;-86
2022/12/28 04:33:02;;;;;;;12.23;10.95;;;;;;;;;;5054128;28;20385;-86
2022/12/28 04:35:28;;;;;;;13.75;11.57;;;;;;;;;;5054219;28;20754;-86
2022/12/28 04:37:54;;;;;;;13.57;12.17;;;;;;;;;;5054054;28;20386;-86
2022/12/28 04:40:20;;;;;;;13.32;11.70;;;;;;;;;;5036352;28;20394;-85
2022/12/28 04:42:46;;;;;;;13.43;12.13;;;;;;;;;;5054010;28;20436;-87
2022/12/28 04:45:12;;;;;;;14.02;11.50;;;;;;;;;;5052128;28;20402;-87
2022/12/28 04:47:38;;;;;;;13.13;10.60;;;;;;;;;;5053884;28;20902;-86
2022/12/28 04:50:04;;;;;;;10.85;9.85;;;;;;;;;;5052659;28;20378;-85
2022/12/28 04:52:30;;;;;;;11.18;10.05;;;;;;;;;;5053741;28;20453;-85
2022/12/28 04:54:56;;;;;;;11.60;9.38;;;;;;;;;;5053735;28;20926;-86
2022/12/28 04:57:22;;;;;;;12.77;9.32;;;;;;;;;;5035914;28;20404;-85
2022/12/28 04:59:48;;;;;;;11.00;9.73;;;;;;;;;;5053461;28;20489;-86
2022/12/28 05:02:14;;;;;;;11.40;10.00;;;;;;;;;;5053511;28;20492;-85
2022/12/28 05:04:40;;;;;;;11.18;10.00;;;;;;;;;;5035736;28;20440;-87
2022/12/28 05:07:06;;;;;;;11.27;10.07;;;;;;;;;;5053554;28;20413;-85
2022/12/28 05:09:32;;;;;;;11.80;9.88;;;;;;;;;;5053364;28;20413;-85
2022/12/28 05:11:58;;;;;;;16.47;11.87;;;;;;;;;;5053466;28;20381;-86
2022/12/28 05:14:24;;;;;;;18.08;12.52;;;;;;;;;;5028822;28;20380;-85
2022/12/28 05:16:51;;;;;;;17.55;12.85;;;;;;;;;;5053439;28;20435;-85
2022/12/28 05:19:16;;;;;;;17.17;12.60;;;;;;;;;;5053239;28;20385;-85
2022/12/28 05:21:42;;;;;;;19.58;13.05;;;;;;;;;;5053103;28;20412;-85
2022/12/28 05:24:09;;;;;;;21.30;14.37;;;;;;;;;;5053250;28;20401;-85
2022/12/28 05:26:35;;;;;;;19.60;13.38;;;;;;;;;;5051351;28;20385;-85
2022/12/28 05:29:01;;;;;;;18.27;13.70;;;;;;;;;;5035104;28;20403;-86
2022/12/28 05:31:27;;;;;;;19.33;14.48;;;;;;;;;;5052831;28;20377;-85
2022/12/28 05:33:54;;;;;;;17.95;13.60;;;;;;;;;;5053048;28;20385;-85
2022/12/28 05:36:26;;;;;;;17.38;13.60;;;;;;;;;;5035195;28;20879;-86
2022/12/28 05:38:52;;;;;;;21.10;14.75;;;;;;;;;;5052881;28;20613;-86
2022/12/28 05:41:20;;;;;;;22.20;14.98;;;;;;;;;;5052815;28;20805;-85
2022/12/28 05:43:46;;;;;;;19.88;14.85;;;;;;;;;;5052706;28;20460;-85
2022/12/28 05:46:15;;;;;;;22.93;15.87;;;;;;;;;;5052872;28;20374;-85
2022/12/28 05:48:41;;;;;;;20.45;15.65;;;;;;;;;;5052664;28;20422;-86
2022/12/28 05:51:11;;;;;;;19.30;15.13;;;;;;;;;;5054880;28;20444;-85
2022/12/28 05:53:38;;;;;;;19.60;16.33;;;;;;;;;;5052556;28;20412;-85
2022/12/28 05:56:09;;;;;;;19.98;15.55;;;;;;;;;;5052640;28;20377;-85
2022/12/28 05:58:35;;;;;;;18.13;15.50;;;;;;;;;;5026713;28;20539;-85
2022/12/28 06:01:08;;;;;;;19.52;15.75;;;;;;;;;;5031286;28;20497;-86
2022/12/28 06:03:35;;;;;;;18.85;15.50;;;;;;;;;;5052492;28;20500;-85
2022/12/28 06:06:05;;;;;;;17.50;15.65;;;;;;;;;;5052371;28;20378;-85
2022/12/28 06:08:31;;;;;;;20.92;15.45;;;;;;;;;;5052322;28;20952;-86
2022/12/28 06:11:01;;;;;;;17.67;16.08;;;;;;;;;;5050378;28;20883;-85
2022/12/28 06:13:27;;;;;;;20.23;15.25;;;;;;;;;;5034393;28;20716;-85
2022/12/28 06:15:53;;;;;;;17.27;15.68;;;;;;;;;;5052296;28;20381;-85
2022/12/28 06:18:19;;;;;;;17.77;16.03;;;;;;;;;;5052105;28;20952;-85
2022/12/28 06:20:45;;;;;;;18.52;16.70;;;;;;;;;;5051968;28;20427;-86
2022/12/28 06:23:11;;;;;;;24.20;17.50;;;;;;;;;;5051996;28;20451;-85
2022/12/28 06:25:38;;;;;;;18.92;17.02;;;;;;;;;;5052000;28;20378;-85
2022/12/28 06:28:04;;;;;;;17.50;15.70;;;;;;;;;;5030851;28;20383;-85
2022/12/28 06:30:30;;;;;;;18.75;16.95;;;;;;;;;;5034668;28;20470;-86
2022/12/28 06:32:56;;;;;;;18.25;16.33;;;;;;;;;;5032965;28;20394;-86
2022/12/28 06:35:22;;;;;;;18.63;16.73;;;;;;;;;;5031819;28;20378;-85
2022/12/28 06:37:48;;;;;;;19.13;17.23;;;;;;;;;;5031321;28;20378;-86
2022/12/28 06:40:15;;;;;;;20.02;17.90;;;;;;;;;;5031626;28;20383;-86
2022/12/28 06:42:41;;;;;;;19.80;17.83;;;;;;;;;;5030334;28;20485;-86
2022/12/28 06:45:07;;;;;;;18.05;16.35;;;;;;;;;;5032056;28;20737;-85
2022/12/28 06:47:35;;;;;;;17.45;15.75;;;;;;;;;;5034658;28;20411;-86
2022/12/28 06:50:01;;;;;;;17.88;15.57;;;;;;;;;;5031396;28;20383;-86
2022/12/28 06:52:27;;;;;;;17.30;15.60;;;;;;;;;;5032736;28;20390;-87
2022/12/28 06:54:53;;;;;;;16.38;14.88;;;;;;;;;;5030692;28;20383;-86
2022/12/28 06:57:25;;;;;;;17.27;15.68;;;;;;;;;;5032782;28;20923;-86
2022/12/28 06:59:51;;;;;;;17.42;15.82;;;;;;;;;;5036413;28;20952;-87
2022/12/28 07:02:18;;;;;;;16.13;14.73;;;;;;;;;;5012020;28;20411;-87
2022/12/28 07:04:44;;;;;;;15.82;14.35;;;;;;;;;;5034653;28;20379;-87
2022/12/28 07:07:10;;;;;;;15.57;14.27;;;;;;;;;;5031858;28;20841;-86
2022/12/28 07:09:36;;;;;;;17.58;15.30;;;;;;;;;;5032896;28;20386;-86
2022/12/28 07:12:02;;;;;;;17.75;16.08;;;;;;;;;;5030690;28;20401;-87
2022/12/28 07:14:28;;;;;;;16.50;14.98;;;;;;;;;;5033860;28;20864;-87
2022/12/28 07:16:54;;;;;;;17.73;15.88;;;;;;;;;;5034097;28;20401;-86
2022/12/28 07:19:20;;;;;;;17.23;15.43;;;;;;;;;;5035858;28;20387;-85
2022/12/28 07:21:49;;;;;;;16.83;15.02;;;;;;;;;;5038489;28;20823;-85
2022/12/28 07:24:15;;;;;;;16.98;15.35;;;;;;;;;;5035705;28;20439;-85
2022/12/28 07:26:41;;;;;;;16.90;15.18;;;;;;;;;;5053893;28;20847;-86
2022/12/28 07:29:07;;;;;;;16.35;14.75;;;;;;;;;;5037645;28;20489;-85
2022/12/28 07:31:35;;;;;;;18.20;15.77;;;;;;;;;;5046802;28;20383;-86
2022/12/28 07:34:01;;;;;;;28.00;16.00;;;;;;;;;;5055416;28;20426;-85
2022/12/28 07:36:29;;;;;;;18.02;15.82;;;;;;;;;;5055027;28;20389;-86
2022/12/28 07:38:55;;;;;;;18.00;15.75;;;;;;;;;;5055111;28;20895;-86
2022/12/28 07:41:22;;;;;;;16.97;14.80;;;;;;;;;;5055161;28;20474;-85
2022/12/28 07:43:48;;;;;;;17.77;15.88;;;;;;;;;;5055067;28;20405;-86
2022/12/28 07:46:16;;;;;;;18.25;16.30;;;;;;;;;;5055075;28;20385;-86
2022/12/28 07:48:42;;;;;;;16.98;15.27;;;;;;;;;;5053447;28;20873;-86
2022/12/28 07:51:13;;;;;;;18.05;15.63;;;;;;;;;;5035984;28;20440;-85
2022/12/28 07:53:40;;;;;;;28.27;14.65;;;;;;;;;;5053771;28;20392;-86
2022/12/28 07:56:06;;;;;;;16.92;15.23;;;;;;;;;;5041400;28;20383;-87
2022/12/28 07:58:32;;;;;;;16.88;15.23;;;;;;;;;;5041539;28;20394;-86
2022/12/28 08:01:06;;;;;;;17.67;15.10;;;;;;;;;;5051104;28;20409;-87
2022/12/28 08:03:32;;;;;;;16.37;14.70;;;;;;;;;;5054126;28;20480;-86
2022/12/28 08:06:04;;;;;;;16.45;14.70;;;;;;;;;;5038240;28;20381;-86
2022/12/28 08:08:30;;;;;;;17.67;15.87;;;;;;;;;;5051638;28;20412;-87
2022/12/28 08:10:56;;;;;;;18.40;16.48;;;;;;;;;;5045545;28;20441;-86
2022/12/28 08:13:22;;;;;;;16.30;14.70;;;;;;;;;;5054630;28;20382;-86
2022/12/28 08:15:54;;;;;;;65.25;40.47;;;;;;;;;;5054286;28;20867;-85
2022/12/28 08:18:20;;;;;;;72.70;39.05;;;;;;;;;;5048787;28;20440;-87
2022/12/28 08:20:46;;;;;;;17.52;15.73;;;;;;;;;;5036386;28;20390;-85
2022/12/28 08:23:12;;;;;;;16.13;14.52;;;;;;;;;;5054201;28;20409;-86
2022/12/28 08:25:38;;;;;;;16.15;14.65;;;;;;;;;;5054082;28;20443;-85
2022/12/28 08:28:04;;;;;;;18.50;16.63;;;;;;;;;;5044687;28;20436;-83
2022/12/28 08:30:30;;;;;;;18.38;16.40;;;;;;;;;;5029933;28;20397;-85
2022/12/28 08:32:56;;;;;;;15.40;14.00;;;;;;;;;;5046880;28;20426;-84
2022/12/28 08:35:22;;;;;;;15.82;14.32;;;;;;;;;;5039975;28;20525;-84
2022/12/28 08:37:49;;;;;;;15.50;14.07;;;;;;;;;;5036475;28;20394;-85
2022/12/28 08:40:15;;;;;;;16.45;14.85;;;;;;;;;;5053997;28;20381;-84
2022/12/28 08:42:40;;;;;;;15.77;14.20;;;;;;;;;;5027816;28;20446;-83
2022/12/28 08:45:08;;;;;;;15.90;14.40;;;;;;;;;;5052162;28;20855;-85
2022/12/28 08:47:34;;;;;;;16.05;14.35;;;;;;;;;;5052075;28;20374;-85
2022/12/28 08:50:00;;;;;;;17.08;15.25;;;;;;;;;;5053644;28;20867;-84
2022/12/28 08:52:26;;;;;;;17.02;15.23;;;;;;;;;;5053588;28;20431;-85
2022/12/28 08:54:52;;;;;;;18.80;15.85;;;;;;;;;;5053515;28;20774;-83
2022/12/28 08:57:18;;;;;;;21.88;17.60;;;;;;;;;;5040341;28;20386;-83
2022/12/28 08:59:44;;;;;;;24.08;19.00;;;;;;;;;;5035479;28;20759;-84
2022/12/28 09:02:12;;;;;;;20.95;18.60;;;;;;;;;;5015749;28;20424;-84
2022/12/28 09:04:39;;;;;;;30.88;21.65;;;;;;;;;;5034641;28;20523;-85
2022/12/28 09:07:05;;;;;;;31.52;22.38;;;;;;;;;;5032819;28;20382;-85
2022/12/28 09:09:33;;;;;;;20.38;17.10;;;;;;;;;;5037904;28;20759;-84
2022/12/28 09:11:59;;;;;;;18.13;16.23;;;;;;;;;;5031749;28;20402;-85
2022/12/28 09:14:25;;;;;;;18.90;16.90;;;;;;;;;;5032923;28;20384;-85
2022/12/28 09:16:52;;;;;;;17.60;15.80;;;;;;;;;;5040975;28;20472;-84
2022/12/28 09:19:18;;;;;;;16.67;15.02;;;;;;;;;;5053092;28;20431;-83
2022/12/28 09:21:47;;;;;;;17.40;15.60;;;;;;;;;;5044137;28;20902;-84
2022/12/28 09:24:13;;;;;;;18.13;16.23;;;;;;;;;;5053270;28;20528;-84
2022/12/28 09:26:40;;;;;;;20.58;18.48;;;;;;;;;;5053217;28;20473;-85
2022/12/28 09:29:07;;;;;;;17.98;16.17;;;;;;;;;;5052900;28;20464;-85
2022/12/28 09:31:35;;;;;;;20.10;17.55;;;;;;;;;;5044189;28;20473;-84
2022/12/28 09:34:02;;;;;;;18.35;16.52;;;;;;;;;;5053047;28;20475;-85
2022/12/28 09:36:35;;;;;;;20.33;18.15;;;;;;;;;;5052407;28;20866;-85
2022/12/28 09:39:03;;;;;;;18.25;16.30;;;;;;;;;;5052946;28;20433;-84
2022/12/28 09:41:32;;;;;;;19.50;17.40;;;;;;;;;;5024304;28;20953;-85
2022/12/28 09:44:16;;;;;;;18.60;16.70;;;;;;;;;;5052584;28;20473;-84
2022/12/28 09:46:46;;;;;;;17.38;15.63;;;;;;;;;;5052848;28;20435;-86
2022/12/28 09:49:15;;;;;;;20.23;16.70;;;;;;;;;;5052591;28;20477;-88
2022/12/28 09:51:46;;;;;;;18.73;16.40;;;;;;;;;;5052578;28;20415;-86
2022/12/28 09:54:12;;;;;;;19.00;17.10;;;;;;;;;;5031257;28;20949;-88
2022/12/28 09:56:39;;;;;;;18.73;16.83;;;;;;;;;;5041100;28;20397;-88
2022/12/28 09:59:06;;;;;;;19.95;16.92;;;;;;;;;;5040349;28;20403;-87
2022/12/28 10:01:35;;;;;;;20.00;17.92;;;;;;;;;;5048924;28;20417;-89
2022/12/28 10:04:02;;;;;;;18.52;16.73;;;;;;;;;;5054544;28;20475;-88
2022/12/28 10:06:31;;;;;;;18.45;16.65;;;;;;;;;;5052271;28;20373;-87
2022/12/28 10:08:59;;;;;;;18.90;16.63;;;;;;;;;;5050300;28;21002;-89
2022/12/28 10:11:28;;;;;;;19.25;17.15;;;;;;;;;;5051928;28;20393;-87
2022/12/28 10:13:55;;;;;;;69.57;39.58;;;;;;;;;;5052068;28;20420;-88
2022/12/28 10:16:22;;;;;;;46.17;29.58;;;;;;;;;;5051117;28;20439;-87
2022/12/28 10:18:48;;;;;;;53.60;32.83;;;;;;;;;;5029267;28;20420;-87
2022/12/28 10:21:18;;;;;;;22.27;18.38;;;;;;;;;;5033555;28;20375;-87
2022/12/28 10:23:45;;;;;;;17.10;15.40;;;;;;;;;;5032433;28;20431;-87
2022/12/28 10:26:13;;;;;;;17.15;15.40;;;;;;;;;;5046036;28;20384;-85
2022/12/28 10:28:51;;;;;;;16.33;14.73;;;;;;;;;;5051584;28;20411;-84
2022/12/28 10:31:30;;;;;;;16.25;14.65;;;;;;;;;;5045290;28;20475;-84
2022/12/28 10:33:56;;;;;;;17.88;16.08;;;;;;;;;;5051970;28;20369;-84
2022/12/28 10:36:23;;;;;;;17.83;16.20;;;;;;;;;;5044062;28;20439;-84
2022/12/28 10:38:51;;;;;;;18.57;16.67;;;;;;;;;;5033305;28;20472;-84
2022/12/28 10:41:18;;;;;;;19.23;17.27;;;;;;;;;;5047871;28;20431;-84
2022/12/28 10:43:46;;;;;;;21.60;19.30;;;;;;;;;;5050656;28;20464;-86
2022/12/28 10:46:19;;;;;;;18.77;17.00;;;;;;;;;;5050088;28;20377;-85
2022/12/28 10:48:47;;;;;;;15.43;14.10;;;;;;;;;;5043720;28;20417;-86
2022/12/28 10:51:15;;;;;;;15.68;14.15;;;;;;;;;;5051710;28;20377;-89
2022/12/28 10:53:45;;;;;;;16.88;15.32;;;;;;;;;;5050321;28;20509;-88
2022/12/28 10:56:11;;;;;;;14.90;13.60;;;;;;;;;;5050719;28;20425;-88
2022/12/28 10:58:38;;;;;;;19.50;17.50;;;;;;;;;;5031311;28;20380;-87
2022/12/28 11:01:16;;;;;;;17.70;15.95;;;;;;;;;;5051126;28;20401;-88
2022/12/28 11:03:43;;;;;;;17.67;15.93;;;;;;;;;;5051247;28;20400;-87
2022/12/28 11:06:11;;;;;;;18.00;16.20;;;;;;;;;;5046798;28;20432;-89
2022/12/28 11:08:38;;;;;;;18.48;16.48;;;;;;;;;;5033683;28;20877;-89
2022/12/28 11:11:05;;;;;;;44.58;28.88;;;;;;;;;;5051311;28;20456;-88
2022/12/28 11:13:31;;;;;;;25.20;20.00;;;;;;;;;;5051531;28;20377;-87
2022/12/28 11:15:57;;;;;;;21.02;18.73;;;;;;;;;;5051471;28;20924;-88
2022/12/28 11:18:23;;;;;;;18.00;16.30;;;;;;;;;;5046870;28;20803;-88
2022/12/28 11:20:54;;;;;;;19.23;17.30;;;;;;;;;;5043507;28;20487;-88
2022/12/28 11:23:22;;;;;;;20.63;18.52;;;;;;;;;;5051289;28;20397;-87
2022/12/28 11:25:48;;;;;;;21.35;18.88;;;;;;;;;;5051419;28;20381;-88
2022/12/28 11:28:16;;;;;;;19.35;17.35;;;;;;;;;;5051366;28;20400;-88
2022/12/28 11:30:45;;;;;;;19.97;17.90;;;;;;;;;;5051155;28;20430;-89
2022/12/28 11:33:30;;;;;;;20.63;18.48;;;;;;;;;;5051218;28;20385;-88
2022/12/28 11:35:56;;;;;;;18.87;16.97;;;;;;;;;;5051352;28;20404;-88
2022/12/28 11:38:38;;;;;;;19.02;16.65;;;;;;;;;;5051232;28;20926;-88
2022/12/28 11:41:04;;;;;;;17.52;15.82;;;;;;;;;;5033333;28;20762;-88
2022/12/28 11:43:34;;;;;;;20.08;17.95;;;;;;;;;;5051036;28;20397;-87
2022/12/28 11:46:00;;;;;;;20.05;17.95;;;;;;;;;;5055427;28;20377;-88
2022/12/28 11:48:39;;;;;;;19.55;16.77;;;;;;;;;;5054646;28;20404;-88
2022/12/28 11:51:05;;;;;;;18.63;16.60;;;;;;;;;;5051092;28;20389;-88
2022/12/28 11:53:31;;;;;;;24.15;18.77;;;;;;;;;;5051125;28;20884;-87
2022/12/28 11:56:08;;;;;;;17.13;15.40;;;;;;;;;;5051103;28;20430;-87
2022/12/28 11:58:42;;;;;;;15.77;14.20;;;;;;;;;;5051098;28;20946;-88
2022/12/28 12:01:09;;;;;;;16.35;14.65;;;;;;;;;;5054110;28;20405;-88
2022/12/28 12:03:53;;;;;;;17.98;16.15;;;;;;;;;;5054694;28;20382;-87
2022/12/28 12:06:19;;;;;;;19.48;16.13;;;;;;;;;;5054642;28;20378;-88
2022/12/28 12:08:48;;;;;;;15.85;14.35;;;;;;;;;;5051013;28;20499;-88
2022/12/28 12:11:28;;;;;;;16.83;15.05;;;;;;;;;;5054560;28;20377;-88
2022/12/28 12:13:54;;;;;;;16.38;14.57;;;;;;;;;;5054660;28;20409;-89
2022/12/28 12:16:20;;;;;;;16.57;14.90;;;;;;;;;;5036862;28;20393;-88
2022/12/28 12:18:48;;;;;;;16.60;14.95;;;;;;;;;;5054463;28;20519;-87
2022/12/28 12:21:35;;;;;;;15.32;13.85;;;;;;;;;;5054345;28;20405;-89
2022/12/28 12:24:13;;;;;;;14.43;13.02;;;;;;;;;;5054546;28;20384;-87
2022/12/28 12:26:43;;;;;;;15.50;13.90;;;;;;;;;;5055453;28;20381;-88
2022/12/28 12:29:24;;;;;;;16.00;14.32;;;;;;;;;;5054265;28;20859;-88
2022/12/28 12:32:10;;;;;;;14.30;12.90;;;;;;;;;;5054163;28;20381;-87
2022/12/28 12:34:39;;;;;;;13.40;12.10;;;;;;;;;;5053926;28;20492;-87
2022/12/28 12:37:05;;;;;;;11.93;10.82;;;;;;;;;;5054194;28;20396;-88
2022/12/28 12:39:37;;;;;;;14.15;12.85;;;;;;;;;;5054352;28;20381;-88
2022/12/28 12:42:22;;;;;;;12.13;10.93;;;;;;;;;;5045452;28;20406;-87
2022/12/28 12:44:57;;;;;;;12.18;10.95;;;;;;;;;;5053976;28;20851;-88
2022/12/28 12:47:29;;;;;;;11.90;10.90;;;;;;;;;;5053818;28;20424;-88
2022/12/28 12:49:54;;;;;;;11.32;10.23;;;;;;;;;;5053807;28;20393;-87
2022/12/28 12:52:32;;;;;;;11.43;10.23;;;;;;;;;;5053766;28;20417;-89
2022/12/28 12:55:18;;;;;;;10.48;9.48;;;;;;;;;;5053734;28;20873;-88
2022/12/28 12:57:53;;;;;;;10.38;9.45;;;;;;;;;;5053727;28;20459;-88
2022/12/28 13:00:21;;;;;;;11.27;10.23;;;;;;;;;;5035650;28;20421;-87
2022/12/28 13:02:53;;;;;;;10.90;9.90;;;;;;;;;;5053496;28;20467;-88
2022/12/28 13:05:21;;;;;;;10.70;9.60;;;;;;;;;;5035766;28;20724;-88
2022/12/28 13:07:48;;;;;;;11.02;9.80;;;;;;;;;;5047979;28;20389;-88
2022/12/28 13:10:19;;;;;;;10.07;9.18;;;;;;;;;;5050325;28;20378;-88
2022/12/28 13:12:45;;;;;;;10.30;8.70;;;;;;;;;;5034618;28;20904;-88
2022/12/28 13:15:18;;;;;;;9.00;8.20;;;;;;;;;;5053463;28;20720;-87
2022/12/28 13:18:02;;;;;;;9.48;8.63;;;;;;;;;;5053310;28;20812;-88
2022/12/28 13:20:29;;;;;;;8.75;8.05;;;;;;;;;;5035314;28;20959;-89
2022/12/28 13:22:55;;;;;;;8.95;8.15;;;;;;;;;;5035302;28;20413;-88
2022/12/28 13:25:28;;;;;;;8.63;7.82;;;;;;;;;;5053203;28;20380;-88
2022/12/28 13:27:55;;;;;;;8.60;7.80;;;;;;;;;;5053102;28;20374;-88
2022/12/28 13:30:22;;;;;;;14.23;12.77;;;;;;;;;;5052991;28;20521;-87
2022/12/28 13:32:51;;;;;;;8.50;7.70;;;;;;;;;;5052934;28;20942;-87
2022/12/28 13:35:25;;;;;;;8.50;7.60;;;;;;;;;;5052966;28;20373;-87
2022/12/28 13:38:09;;;;;;;7.75;7.05;;;;;;;;;;5052741;28;20401;-87
2022/12/28 13:40:37;;;;;;;7.45;6.78;;;;;;;;;;5052786;28;20381;-88
2022/12/28 13:43:21;;;;;;;7.90;7.30;;;;;;;;;;5052748;28;20431;-87
2022/12/28 13:45:50;;;;;;;8.53;7.87;;;;;;;;;;5052781;28;20557;-88
2022/12/28 13:48:16;;;;;;;9.02;8.23;;;;;;;;;;5052652;28;20396;-88
2022/12/28 13:50:42;;;;;;;9.00;8.20;;;;;;;;;;5052593;28;20843;-88
2022/12/28 13:53:12;;;;;;;8.93;8.13;;;;;;;;;;5052737;28;20380;-88
2022/12/28 13:55:41;;;;;;;8.90;8.10;;;;;;;;;;5052529;28;20451;-87
2022/12/28 13:58:09;;;;;;;8.30;7.57;;;;;;;;;;5034592;28;20766;-87
2022/12/28 14:00:36;;;;;;;8.90;8.10;;;;;;;;;;5050435;28;20478;-87
2022/12/28 14:03:06;;;;;;;9.27;8.37;;;;;;;;;;5052233;28;20412;-86
2022/12/28 14:05:33;;;;;;;8.95;8.15;;;;;;;;;;5052448;28;20385;-89
2022/12/28 14:07:59;;;;;;;9.45;8.65;;;;;;;;;;5052338;28;20385;-88
2022/12/28 14:10:25;;;;;;;8.45;7.68;;;;;;;;;;5034371;28;20401;-87
2022/12/28 14:12:52;;;;;;;8.15;7.45;;;;;;;;;;5052157;28;20382;-87
2022/12/28 14:15:18;;;;;;;7.95;7.30;;;;;;;;;;5052265;28;20384;-88
2022/12/28 14:17:49;;;;;;;7.93;7.22;;;;;;;;;;5050679;28;20385;-87
2022/12/28 14:20:15;;;;;;;7.85;7.25;;;;;;;;;;5040292;28;20388;-87
2022/12/28 14:22:41;;;;;;;8.33;7.47;;;;;;;;;;5034057;28;21070;-87
2022/12/28 14:25:12;;;;;;;8.05;7.32;;;;;;;;;;5052035;28;20378;-87
2022/12/28 14:28:02;;;;;;;7.60;6.95;;;;;;;;;;5051895;28;20381;-88
2022/12/28 14:30:36;;;;;;;7.50;6.80;;;;;;;;;;5039492;28;20814;-87
2022/12/28 14:33:05;;;;;;;7.90;7.18;;;;;;;;;;5041165;28;20389;-87
2022/12/28 14:35:31;;;;;;;7.88;7.18;;;;;;;;;;5051841;28;20390;-87
2022/12/28 14:37:58;;;;;;;5.75;5.25;;;;;;;;;;5051854;28;20377;-87
2022/12/28 14:40:26;;;;;;;4.80;3.60;;;;;;;;;;5033698;28;20404;-86
2022/12/28 14:42:53;;;;;;;3.25;2.92;;;;;;;;;;5051835;28;20471;-86
2022/12/28 14:45:35;;;;;;;2.38;2.17;;;;;;;;;;5051778;28;20875;-87
2022/12/28 14:48:02;;;;;;;2.95;2.40;;;;;;;;;;5051847;28;20362;-88
2022/12/28 14:50:30;;;;;;;2.20;2.10;;;;;;;;;;5051532;28;20917;-86
2022/12/28 14:53:08;;;;;;;2.80;2.33;;;;;;;;;;5051805;28;20476;-88
2022/12/28 14:55:37;;;;;;;2.40;2.20;;;;;;;;;;5051700;28;20389;-87
2022/12/28 14:58:05;;;;;;;3.08;2.30;;;;;;;;;;5051690;28;20472;-87
2022/12/28 15:00:34;;;;;;;3.05;2.70;;;;;;;;;;5051640;28;20405;-87